sensor_id;sensor_type;location;lat;lon;timestamp;P1;durP1;ratioP1;P2;durP2;ratioP2
24751;SDS011;27246;52.376;4.628;2022-12-18T00:04:31;62.05;;;34.78;;
24751;SDS011;27246;52.376;4.628;2022-12-18T00:09:33;63.90;;;37.35;;
24751;SDS011;27246;52.376;4.628;2022-12-18T00:14:40;68.57;;;36.08;;
24751;SDS011;27246;52.376;4.628;2022-12-18T00:19:42;67.00;;;37.05;;
24751;SDS011;27246;52.376;4.628;2022-12-18T00:24:44;67.57;;;35.80;;
24751;SDS011;27246;52.376;4.628;2022-12-18T00:29:46;62.13;;;33.75;;
24751;SDS011;27246;52.376;4.628;2022-12-18T00:34:49;58.95;;;32.10;;
24751;SDS011;27246;52.376;4.628;2022-12-18T00:39:51;65.47;;;34.85;;
24751;SDS011;27246;52.376;4.628;2022-12-18T00:44:53;51.90;;;30.17;;
24751;SDS011;27246;52.376;4.628;2022-12-18T00:49:55;59.13;;;31.33;;
24751;SDS011;27246;52.376;4.628;2022-12-18T00:54:57;47.40;;;30.13;;
24751;SDS011;27246;52.376;4.628;2022-12-18T01:05:58;57.05;;;32.10;;
24751;SDS011;27246;52.376;4.628;2022-12-18T01:11:00;52.13;;;31.02;;
24751;SDS011;27246;52.376;4.628;2022-12-18T01:16:02;49.67;;;28.63;;
24751;SDS011;27246;52.376;4.628;2022-12-18T01:21:07;56.47;;;31.77;;
24751;SDS011;27246;52.376;4.628;2022-12-18T01:26:12;54.08;;;31.52;;
24751;SDS011;27246;52.376;4.628;2022-12-18T01:31:19;55.75;;;30.70;;
24751;SDS011;27246;52.376;4.628;2022-12-18T01:36:24;49.20;;;31.08;;
24751;SDS011;27246;52.376;4.628;2022-12-18T01:41:28;57.42;;;32.35;;
24751;SDS011;27246;52.376;4.628;2022-12-18T01:46:51;59.45;;;32.35;;
24751;SDS011;27246;52.376;4.628;2022-12-18T01:51:52;55.60;;;32.05;;
24751;SDS011;27246;52.376;4.628;2022-12-18T01:56:54;56.42;;;31.25;;
24751;SDS011;27246;52.376;4.628;2022-12-18T02:01:56;54.85;;;32.60;;
24751;SDS011;27246;52.376;4.628;2022-12-18T02:07:07;54.20;;;30.40;;
24751;SDS011;27246;52.376;4.628;2022-12-18T02:12:19;53.10;;;30.30;;
24751;SDS011;27246;52.376;4.628;2022-12-18T02:17:26;52.67;;;30.55;;
24751;SDS011;27246;52.376;4.628;2022-12-18T02:22:44;54.38;;;31.60;;
24751;SDS011;27246;52.376;4.628;2022-12-18T02:28:28;51.90;;;31.50;;
24751;SDS011;27246;52.376;4.628;2022-12-18T02:33:37;49.22;;;28.92;;
24751;SDS011;27246;52.376;4.628;2022-12-18T02:38:42;48.13;;;27.85;;
24751;SDS011;27246;52.376;4.628;2022-12-18T02:43:52;49.80;;;29.17;;
24751;SDS011;27246;52.376;4.628;2022-12-18T02:49:01;50.67;;;30.05;;
24751;SDS011;27246;52.376;4.628;2022-12-18T02:54:23;53.13;;;29.88;;
24751;SDS011;27246;52.376;4.628;2022-12-18T02:59:33;48.60;;;29.23;;
24751;SDS011;27246;52.376;4.628;2022-12-18T03:04:55;44.40;;;27.15;;
24751;SDS011;27246;52.376;4.628;2022-12-18T03:10:08;41.47;;;26.02;;
24751;SDS011;27246;52.376;4.628;2022-12-18T03:15:23;40.33;;;25.08;;
24751;SDS011;27246;52.376;4.628;2022-12-18T03:20:39;44.65;;;26.60;;
24751;SDS011;27246;52.376;4.628;2022-12-18T03:25:47;44.95;;;27.08;;
24751;SDS011;27246;52.376;4.628;2022-12-18T03:30:57;43.38;;;28.02;;
24751;SDS011;27246;52.376;4.628;2022-12-18T03:36:03;45.65;;;26.67;;
24751;SDS011;27246;52.376;4.628;2022-12-18T03:52:49;38.97;;;24.42;;
24751;SDS011;27246;52.376;4.628;2022-12-18T03:57:58;36.13;;;23.30;;
24751;SDS011;27246;52.376;4.628;2022-12-18T04:03:13;44.08;;;26.08;;
24751;SDS011;27246;52.376;4.628;2022-12-18T04:08:20;39.80;;;25.95;;
24751;SDS011;27246;52.376;4.628;2022-12-18T04:13:35;42.75;;;25.45;;
24751;SDS011;27246;52.376;4.628;2022-12-18T04:18:43;38.63;;;25.10;;
24751;SDS011;27246;52.376;4.628;2022-12-18T04:23:46;41.15;;;26.52;;
24751;SDS011;27246;52.376;4.628;2022-12-18T04:28:48;33.45;;;22.52;;
24751;SDS011;27246;52.376;4.628;2022-12-18T04:33:50;40.22;;;24.73;;
24751;SDS011;27246;52.376;4.628;2022-12-18T04:38:52;36.40;;;24.00;;
24751;SDS011;27246;52.376;4.628;2022-12-18T04:43:54;37.65;;;23.92;;
24751;SDS011;27246;52.376;4.628;2022-12-18T04:48:56;38.15;;;23.85;;
24751;SDS011;27246;52.376;4.628;2022-12-18T04:53:58;38.35;;;23.80;;
24751;SDS011;27246;52.376;4.628;2022-12-18T04:58:59;40.95;;;24.67;;
24751;SDS011;27246;52.376;4.628;2022-12-18T05:04:01;36.55;;;24.27;;
24751;SDS011;27246;52.376;4.628;2022-12-18T05:09:04;35.80;;;24.13;;
24751;SDS011;27246;52.376;4.628;2022-12-18T05:14:06;41.45;;;26.00;;
24751;SDS011;27246;52.376;4.628;2022-12-18T05:19:07;36.83;;;24.02;;
24751;SDS011;27246;52.376;4.628;2022-12-18T05:24:09;36.70;;;22.95;;
24751;SDS011;27246;52.376;4.628;2022-12-18T05:29:11;38.67;;;24.48;;
24751;SDS011;27246;52.376;4.628;2022-12-18T05:34:14;38.13;;;23.77;;
24751;SDS011;27246;52.376;4.628;2022-12-18T05:39:16;40.28;;;25.75;;
24751;SDS011;27246;52.376;4.628;2022-12-18T05:44:17;38.58;;;23.80;;
24751;SDS011;27246;52.376;4.628;2022-12-18T05:49:19;41.92;;;26.55;;
24751;SDS011;27246;52.376;4.628;2022-12-18T05:54:21;36.25;;;23.13;;
24751;SDS011;27246;52.376;4.628;2022-12-18T05:59:23;42.00;;;24.58;;
24751;SDS011;27246;52.376;4.628;2022-12-18T06:04:26;40.45;;;25.35;;
24751;SDS011;27246;52.376;4.628;2022-12-18T06:09:29;42.03;;;26.17;;
24751;SDS011;27246;52.376;4.628;2022-12-18T06:14:30;40.17;;;26.20;;
24751;SDS011;27246;52.376;4.628;2022-12-18T06:19:32;41.85;;;25.25;;
24751;SDS011;27246;52.376;4.628;2022-12-18T06:24:34;39.90;;;25.23;;
24751;SDS011;27246;52.376;4.628;2022-12-18T06:29:35;39.80;;;24.88;;
24751;SDS011;27246;52.376;4.628;2022-12-18T06:34:37;38.25;;;26.05;;
24751;SDS011;27246;52.376;4.628;2022-12-18T06:39:39;38.78;;;25.60;;
24751;SDS011;27246;52.376;4.628;2022-12-18T06:44:40;34.00;;;23.65;;
24751;SDS011;27246;52.376;4.628;2022-12-18T06:49:42;34.35;;;24.75;;
24751;SDS011;27246;52.376;4.628;2022-12-18T06:54:44;33.33;;;23.70;;
24751;SDS011;27246;52.376;4.628;2022-12-18T06:59:46;33.20;;;22.92;;
24751;SDS011;27246;52.376;4.628;2022-12-18T07:04:48;35.83;;;23.98;;
24751;SDS011;27246;52.376;4.628;2022-12-18T07:09:50;34.70;;;24.80;;
24751;SDS011;27246;52.376;4.628;2022-12-18T07:14:52;35.83;;;24.73;;
24751;SDS011;27246;52.376;4.628;2022-12-18T07:19:54;39.30;;;25.58;;
24751;SDS011;27246;52.376;4.628;2022-12-18T07:24:55;33.92;;;23.98;;
24751;SDS011;27246;52.376;4.628;2022-12-18T07:29:57;32.88;;;22.77;;
24751;SDS011;27246;52.376;4.628;2022-12-18T07:34:59;33.00;;;23.40;;
24751;SDS011;27246;52.376;4.628;2022-12-18T07:40:00;33.17;;;22.92;;
24751;SDS011;27246;52.376;4.628;2022-12-18T07:45:02;32.13;;;23.42;;
24751;SDS011;27246;52.376;4.628;2022-12-18T07:50:05;29.58;;;21.90;;
24751;SDS011;27246;52.376;4.628;2022-12-18T07:55:07;28.25;;;20.70;;
24751;SDS011;27246;52.376;4.628;2022-12-18T08:00:09;27.20;;;19.13;;
24751;SDS011;27246;52.376;4.628;2022-12-18T08:05:14;25.85;;;19.25;;
24751;SDS011;27246;52.376;4.628;2022-12-18T08:10:16;24.08;;;18.50;;
24751;SDS011;27246;52.376;4.628;2022-12-18T08:15:18;23.75;;;17.48;;
24751;SDS011;27246;52.376;4.628;2022-12-18T08:20:20;24.48;;;17.23;;
24751;SDS011;27246;52.376;4.628;2022-12-18T08:25:21;23.25;;;17.27;;
24751;SDS011;27246;52.376;4.628;2022-12-18T08:30:23;20.65;;;15.48;;
24751;SDS011;27246;52.376;4.628;2022-12-18T08:35:25;22.55;;;16.70;;
24751;SDS011;27246;52.376;4.628;2022-12-18T08:40:30;22.92;;;16.58;;
24751;SDS011;27246;52.376;4.628;2022-12-18T08:45:33;19.20;;;15.50;;
24751;SDS011;27246;52.376;4.628;2022-12-18T08:50:35;21.23;;;16.70;;
24751;SDS011;27246;52.376;4.628;2022-12-18T08:55:37;23.48;;;16.73;;
24751;SDS011;27246;52.376;4.628;2022-12-18T09:00:38;19.98;;;15.55;;
24751;SDS011;27246;52.376;4.628;2022-12-18T09:05:40;18.27;;;14.80;;
24751;SDS011;27246;52.376;4.628;2022-12-18T09:10:46;19.35;;;15.20;;
24751;SDS011;27246;52.376;4.628;2022-12-18T09:15:51;17.67;;;14.05;;
24751;SDS011;27246;52.376;4.628;2022-12-18T09:20:54;16.85;;;14.68;;
24751;SDS011;27246;52.376;4.628;2022-12-18T09:25:59;21.25;;;15.43;;
24751;SDS011;27246;52.376;4.628;2022-12-18T09:31:04;17.25;;;14.13;;
24751;SDS011;27246;52.376;4.628;2022-12-18T09:36:09;21.45;;;15.10;;
24751;SDS011;27246;52.376;4.628;2022-12-18T09:41:16;20.38;;;14.93;;
24751;SDS011;27246;52.376;4.628;2022-12-18T09:46:22;20.35;;;15.05;;
24751;SDS011;27246;52.376;4.628;2022-12-18T09:51:30;18.70;;;14.77;;
24751;SDS011;27246;52.376;4.628;2022-12-18T09:56:38;18.73;;;15.32;;
24751;SDS011;27246;52.376;4.628;2022-12-18T10:01:42;18.40;;;15.07;;
24751;SDS011;27246;52.376;4.628;2022-12-18T10:17:44;21.08;;;17.13;;
24751;SDS011;27246;52.376;4.628;2022-12-18T10:22:59;19.48;;;15.50;;
24751;SDS011;27246;52.376;4.628;2022-12-18T10:28:08;20.50;;;16.70;;
24751;SDS011;27246;52.376;4.628;2022-12-18T10:33:13;17.27;;;14.55;;
24751;SDS011;27246;52.376;4.628;2022-12-18T10:43:21;18.67;;;15.18;;
24751;SDS011;27246;52.376;4.628;2022-12-18T10:48:29;19.63;;;15.15;;
24751;SDS011;27246;52.376;4.628;2022-12-18T10:53:33;18.25;;;14.25;;
24751;SDS011;27246;52.376;4.628;2022-12-18T10:58:38;18.13;;;15.52;;
24751;SDS011;27246;52.376;4.628;2022-12-18T11:03:42;20.55;;;15.52;;
24751;SDS011;27246;52.376;4.628;2022-12-18T11:09:18;17.77;;;14.88;;
24751;SDS011;27246;52.376;4.628;2022-12-18T11:14:34;20.75;;;15.38;;
24751;SDS011;27246;52.376;4.628;2022-12-18T11:19:54;18.67;;;14.88;;
24751;SDS011;27246;52.376;4.628;2022-12-18T11:30:35;17.75;;;14.45;;
24751;SDS011;27246;52.376;4.628;2022-12-18T11:35:39;20.75;;;14.85;;
24751;SDS011;27246;52.376;4.628;2022-12-18T11:41:00;20.17;;;15.98;;
24751;SDS011;27246;52.376;4.628;2022-12-18T11:46:07;20.02;;;13.98;;
24751;SDS011;27246;52.376;4.628;2022-12-18T11:51:28;19.08;;;14.75;;
24751;SDS011;27246;52.376;4.628;2022-12-18T12:17:37;21.25;;;15.98;;
24751;SDS011;27246;52.376;4.628;2022-12-18T12:23:11;19.52;;;14.68;;
24751;SDS011;27246;52.376;4.628;2022-12-18T12:39:31;20.20;;;15.02;;
24751;SDS011;27246;52.376;4.628;2022-12-18T12:44:39;19.08;;;15.25;;
24751;SDS011;27246;52.376;4.628;2022-12-18T12:49:48;19.63;;;14.67;;
24751;SDS011;27246;52.376;4.628;2022-12-18T12:54:52;17.30;;;13.98;;
24751;SDS011;27246;52.376;4.628;2022-12-18T13:00:05;21.33;;;14.50;;
24751;SDS011;27246;52.376;4.628;2022-12-18T13:10:44;20.08;;;14.82;;
24751;SDS011;27246;52.376;4.628;2022-12-18T13:15:48;18.02;;;15.18;;
24751;SDS011;27246;52.376;4.628;2022-12-18T13:21:20;19.40;;;14.90;;
24751;SDS011;27246;52.376;4.628;2022-12-18T13:36:40;18.88;;;14.43;;
24751;SDS011;27246;52.376;4.628;2022-12-18T13:41:43;21.52;;;15.57;;
24751;SDS011;27246;52.376;4.628;2022-12-18T13:46:49;23.67;;;16.75;;
24751;SDS011;27246;52.376;4.628;2022-12-18T13:51:53;24.15;;;17.83;;
24751;SDS011;27246;52.376;4.628;2022-12-18T13:56:56;21.67;;;16.75;;
24751;SDS011;27246;52.376;4.628;2022-12-18T14:01:59;17.65;;;14.82;;
24751;SDS011;27246;52.376;4.628;2022-12-18T14:07:07;20.48;;;16.17;;
24751;SDS011;27246;52.376;4.628;2022-12-18T14:12:22;21.55;;;15.65;;
24751;SDS011;27246;52.376;4.628;2022-12-18T14:17:45;20.97;;;15.07;;
24751;SDS011;27246;52.376;4.628;2022-12-18T14:22:48;20.38;;;14.48;;
24751;SDS011;27246;52.376;4.628;2022-12-18T14:28:09;20.65;;;15.45;;
24751;SDS011;27246;52.376;4.628;2022-12-18T14:33:16;18.88;;;15.13;;
24751;SDS011;27246;52.376;4.628;2022-12-18T14:38:35;22.73;;;16.55;;
24751;SDS011;27246;52.376;4.628;2022-12-18T14:43:39;19.15;;;14.82;;
24751;SDS011;27246;52.376;4.628;2022-12-18T14:48:43;20.05;;;15.23;;
24751;SDS011;27246;52.376;4.628;2022-12-18T14:53:53;24.33;;;16.85;;
24751;SDS011;27246;52.376;4.628;2022-12-18T14:58:58;20.58;;;15.20;;
24751;SDS011;27246;52.376;4.628;2022-12-18T15:04:01;21.02;;;15.63;;
24751;SDS011;27246;52.376;4.628;2022-12-18T15:09:20;19.00;;;15.40;;
24751;SDS011;27246;52.376;4.628;2022-12-18T15:14:38;20.38;;;15.05;;
24751;SDS011;27246;52.376;4.628;2022-12-18T15:19:42;18.70;;;14.43;;
24751;SDS011;27246;52.376;4.628;2022-12-18T15:24:46;20.20;;;15.20;;
24751;SDS011;27246;52.376;4.628;2022-12-18T15:35:24;18.77;;;15.10;;
24751;SDS011;27246;52.376;4.628;2022-12-18T15:40:26;22.35;;;17.42;;
24751;SDS011;27246;52.376;4.628;2022-12-18T15:45:28;23.05;;;16.33;;
24751;SDS011;27246;52.376;4.628;2022-12-18T15:50:30;20.52;;;16.40;;
24751;SDS011;27246;52.376;4.628;2022-12-18T15:55:34;20.85;;;15.63;;
24751;SDS011;27246;52.376;4.628;2022-12-18T16:01:01;21.30;;;16.58;;
24751;SDS011;27246;52.376;4.628;2022-12-18T16:06:03;22.60;;;15.45;;
24751;SDS011;27246;52.376;4.628;2022-12-18T16:11:04;23.73;;;16.88;;
24751;SDS011;27246;52.376;4.628;2022-12-18T16:16:07;21.58;;;16.13;;
24751;SDS011;27246;52.376;4.628;2022-12-18T16:21:12;23.92;;;17.27;;
24751;SDS011;27246;52.376;4.628;2022-12-18T16:26:16;20.40;;;16.42;;
24751;SDS011;27246;52.376;4.628;2022-12-18T16:31:18;21.05;;;16.80;;
24751;SDS011;27246;52.376;4.628;2022-12-18T16:36:20;22.00;;;15.68;;
24751;SDS011;27246;52.376;4.628;2022-12-18T16:41:22;21.65;;;16.08;;
24751;SDS011;27246;52.376;4.628;2022-12-18T16:46:34;24.23;;;16.92;;
24751;SDS011;27246;52.376;4.628;2022-12-18T16:51:36;23.13;;;17.35;;
24751;SDS011;27246;52.376;4.628;2022-12-18T16:56:37;22.45;;;16.23;;
24751;SDS011;27246;52.376;4.628;2022-12-18T17:01:39;23.38;;;17.77;;
24751;SDS011;27246;52.376;4.628;2022-12-18T17:06:43;24.45;;;19.27;;
24751;SDS011;27246;52.376;4.628;2022-12-18T17:11:45;26.00;;;18.95;;
24751;SDS011;27246;52.376;4.628;2022-12-18T17:16:47;27.80;;;18.90;;
24751;SDS011;27246;52.376;4.628;2022-12-18T17:22:09;22.75;;;18.15;;
24751;SDS011;27246;52.376;4.628;2022-12-18T17:27:11;24.50;;;18.20;;
24751;SDS011;27246;52.376;4.628;2022-12-18T17:32:13;25.40;;;17.60;;
24751;SDS011;27246;52.376;4.628;2022-12-18T17:37:14;21.38;;;18.52;;
24751;SDS011;27246;52.376;4.628;2022-12-18T17:42:16;24.77;;;18.10;;
24751;SDS011;27246;52.376;4.628;2022-12-18T17:47:18;24.23;;;18.30;;
24751;SDS011;27246;52.376;4.628;2022-12-18T17:52:20;25.40;;;18.02;;
24751;SDS011;27246;52.376;4.628;2022-12-18T17:57:21;23.77;;;18.40;;
24751;SDS011;27246;52.376;4.628;2022-12-18T18:02:24;23.58;;;17.08;;
24751;SDS011;27246;52.376;4.628;2022-12-18T18:07:27;27.27;;;19.30;;
24751;SDS011;27246;52.376;4.628;2022-12-18T18:12:28;22.80;;;16.05;;
24751;SDS011;27246;52.376;4.628;2022-12-18T18:17:48;27.35;;;20.10;;
24751;SDS011;27246;52.376;4.628;2022-12-18T18:22:50;26.40;;;19.63;;
24751;SDS011;27246;52.376;4.628;2022-12-18T18:27:52;25.10;;;19.30;;
24751;SDS011;27246;52.376;4.628;2022-12-18T18:32:54;26.45;;;19.60;;
24751;SDS011;27246;52.376;4.628;2022-12-18T18:37:55;24.02;;;20.13;;
24751;SDS011;27246;52.376;4.628;2022-12-18T18:42:57;30.58;;;20.02;;
24751;SDS011;27246;52.376;4.628;2022-12-18T18:47:59;27.27;;;19.33;;
24751;SDS011;27246;52.376;4.628;2022-12-18T18:53:01;25.30;;;19.77;;
24751;SDS011;27246;52.376;4.628;2022-12-18T18:58:02;26.27;;;20.35;;
24751;SDS011;27246;52.376;4.628;2022-12-18T19:03:06;29.05;;;21.40;;
24751;SDS011;27246;52.376;4.628;2022-12-18T19:08:07;28.63;;;20.80;;
24751;SDS011;27246;52.376;4.628;2022-12-18T19:13:11;26.55;;;20.10;;
24751;SDS011;27246;52.376;4.628;2022-12-18T19:18:24;26.80;;;21.27;;
24751;SDS011;27246;52.376;4.628;2022-12-18T19:23:28;28.23;;;21.02;;
24751;SDS011;27246;52.376;4.628;2022-12-18T19:28:30;27.85;;;21.05;;
24751;SDS011;27246;52.376;4.628;2022-12-18T19:33:33;25.10;;;19.33;;
24751;SDS011;27246;52.376;4.628;2022-12-18T19:38:46;27.65;;;20.88;;
24751;SDS011;27246;52.376;4.628;2022-12-18T19:43:49;45.35;;;31.15;;
24751;SDS011;27246;52.376;4.628;2022-12-18T19:48:52;25.90;;;21.00;;
24751;SDS011;27246;52.376;4.628;2022-12-18T19:53:57;27.00;;;20.55;;
24751;SDS011;27246;52.376;4.628;2022-12-18T19:59:02;26.58;;;19.77;;
24751;SDS011;27246;52.376;4.628;2022-12-18T20:04:05;26.75;;;21.15;;
24751;SDS011;27246;52.376;4.628;2022-12-18T20:09:08;30.42;;;22.20;;
24751;SDS011;27246;52.376;4.628;2022-12-18T20:14:10;25.17;;;21.10;;
24751;SDS011;27246;52.376;4.628;2022-12-18T20:19:13;25.50;;;19.10;;
24751;SDS011;27246;52.376;4.628;2022-12-18T20:24:17;28.20;;;21.95;;
24751;SDS011;27246;52.376;4.628;2022-12-18T20:29:19;27.95;;;20.92;;
24751;SDS011;27246;52.376;4.628;2022-12-18T20:34:21;25.75;;;20.75;;
24751;SDS011;27246;52.376;4.628;2022-12-18T20:39:24;27.88;;;20.17;;
24751;SDS011;27246;52.376;4.628;2022-12-18T20:44:31;27.40;;;20.73;;
24751;SDS011;27246;52.376;4.628;2022-12-18T20:49:33;27.00;;;20.35;;
24751;SDS011;27246;52.376;4.628;2022-12-18T20:54:34;27.25;;;20.27;;
24751;SDS011;27246;52.376;4.628;2022-12-18T20:59:36;26.38;;;20.25;;
24751;SDS011;27246;52.376;4.628;2022-12-18T21:04:42;27.20;;;20.25;;
24751;SDS011;27246;52.376;4.628;2022-12-18T21:09:43;28.63;;;20.63;;
24751;SDS011;27246;52.376;4.628;2022-12-18T21:14:45;27.55;;;21.10;;
24751;SDS011;27246;52.376;4.628;2022-12-18T21:19:48;28.90;;;20.42;;
24751;SDS011;27246;52.376;4.628;2022-12-18T21:24:50;29.42;;;20.92;;
24751;SDS011;27246;52.376;4.628;2022-12-18T21:29:52;25.77;;;19.55;;
24751;SDS011;27246;52.376;4.628;2022-12-18T21:34:54;29.35;;;21.58;;
24751;SDS011;27246;52.376;4.628;2022-12-18T21:39:56;27.77;;;20.20;;
24751;SDS011;27246;52.376;4.628;2022-12-18T21:44:57;27.73;;;20.25;;
24751;SDS011;27246;52.376;4.628;2022-12-18T21:49:59;47.60;;;33.85;;
24751;SDS011;27246;52.376;4.628;2022-12-18T21:55:01;27.58;;;20.65;;
24751;SDS011;27246;52.376;4.628;2022-12-18T22:00:10;32.88;;;22.55;;
24751;SDS011;27246;52.376;4.628;2022-12-18T22:05:19;28.60;;;20.93;;
24751;SDS011;27246;52.376;4.628;2022-12-18T22:10:21;30.02;;;20.67;;
24751;SDS011;27246;52.376;4.628;2022-12-18T22:15:23;25.75;;;20.80;;
24751;SDS011;27246;52.376;4.628;2022-12-18T22:20:24;27.08;;;20.13;;
24751;SDS011;27246;52.376;4.628;2022-12-18T22:25:27;28.38;;;21.48;;
24751;SDS011;27246;52.376;4.628;2022-12-18T22:30:28;28.50;;;20.52;;
24751;SDS011;27246;52.376;4.628;2022-12-18T22:35:31;27.63;;;21.50;;
24751;SDS011;27246;52.376;4.628;2022-12-18T22:40:32;39.72;;;27.10;;
24751;SDS011;27246;52.376;4.628;2022-12-18T22:45:34;27.45;;;20.10;;
24751;SDS011;27246;52.376;4.628;2022-12-18T22:50:39;29.63;;;20.27;;
24751;SDS011;27246;52.376;4.628;2022-12-18T22:55:41;32.05;;;21.92;;
24751;SDS011;27246;52.376;4.628;2022-12-18T23:00:42;40.42;;;29.48;;
24751;SDS011;27246;52.376;4.628;2022-12-18T23:05:44;34.08;;;23.52;;
24751;SDS011;27246;52.376;4.628;2022-12-18T23:10:46;30.27;;;22.55;;
24751;SDS011;27246;52.376;4.628;2022-12-18T23:15:49;26.95;;;20.65;;
24751;SDS011;27246;52.376;4.628;2022-12-18T23:20:50;28.40;;;20.77;;
24751;SDS011;27246;52.376;4.628;2022-12-18T23:25:58;29.45;;;20.13;;
24751;SDS011;27246;52.376;4.628;2022-12-18T23:31:06;27.13;;;21.45;;
24751;SDS011;27246;52.376;4.628;2022-12-18T23:36:15;28.02;;;19.33;;
24751;SDS011;27246;52.376;4.628;2022-12-18T23:41:18;29.08;;;19.98;;
24751;SDS011;27246;52.376;4.628;2022-12-18T23:46:29;27.45;;;19.83;;
24751;SDS011;27246;52.376;4.628;2022-12-18T23:51:33;27.17;;;19.63;;
24751;SDS011;27246;52.376;4.628;2022-12-18T23:56:36;26.67;;;20.25;;
